createdAt,value
2023-03-01T00:01:15.680Z,5.97
2023-03-01T00:03:45.197Z,6.13
2023-03-01T00:06:13.004Z,5.20
2023-03-01T00:08:41.111Z,5.67
2023-03-01T00:11:10.845Z,5.20
2023-03-01T00:13:39.206Z,5.30
2023-03-01T00:16:09.152Z,5.43
2023-03-01T00:18:37.075Z,5.60
2023-03-01T00:21:06.577Z,5.30
2023-03-01T00:23:36.454Z,5.80
2023-03-01T00:26:04.581Z,5.50
2023-03-01T00:28:33.278Z,5.07
2023-03-01T00:31:05.480Z,5.43
2023-03-01T00:33:33.352Z,5.47
2023-03-01T00:36:01.468Z,5.33
2023-03-01T00:38:31.123Z,5.80
2023-03-01T00:41:05.380Z,5.13
2023-03-01T00:43:37.617Z,5.53
2023-03-01T00:46:06.996Z,5.30
2023-03-01T00:48:34.955Z,5.23
2023-03-01T00:51:07.747Z,5.37
2023-03-01T00:53:37.827Z,5.37
2023-03-01T00:56:06.963Z,5.30
2023-03-01T00:58:35.075Z,5.57
2023-03-01T01:01:03.079Z,4.90
2023-03-01T01:03:30.806Z,5.43
2023-03-01T01:05:58.526Z,4.87
2023-03-01T01:08:26.326Z,5.03
2023-03-01T01:10:55.433Z,5.07
2023-03-01T01:13:23.145Z,5.37
2023-03-01T01:15:50.902Z,4.77
2023-03-01T01:18:18.650Z,5.40
2023-03-01T01:20:46.380Z,5.10
2023-03-01T01:23:14.096Z,5.37
2023-03-01T01:25:41.837Z,4.97
2023-03-01T01:28:10.928Z,5.37
2023-03-01T01:30:38.646Z,5.50
2023-03-01T01:33:06.416Z,5.50
2023-03-01T01:35:34.203Z,4.57
2023-03-01T01:38:01.938Z,5.20
2023-03-01T01:40:29.697Z,5.10
2023-03-01T01:42:57.435Z,4.67
2023-03-01T01:45:33.963Z,5.47
2023-03-01T01:48:06.684Z,5.10
2023-03-01T01:50:39.751Z,4.83
2023-03-01T01:53:14.682Z,4.80
2023-03-01T01:55:45.420Z,4.83
2023-03-01T01:58:16.050Z,4.80
2023-03-01T02:00:45.418Z,5.30
2023-03-01T02:03:18.716Z,4.67
2023-03-01T02:05:55.567Z,4.83
2023-03-01T02:08:27.016Z,4.50
2023-03-01T02:10:56.741Z,4.53
2023-03-01T02:13:24.533Z,5.13
2023-03-01T02:15:54.239Z,4.23
2023-03-01T02:18:25.472Z,5.43
2023-03-01T02:21:07.378Z,5.20
2023-03-01T02:23:35.880Z,4.77
2023-03-01T02:26:09.995Z,5.00
2023-03-01T02:28:40.484Z,5.20
2023-03-01T02:31:41.462Z,5.73
2023-03-01T02:34:11.005Z,4.50
2023-03-01T02:36:40.863Z,5.57
2023-03-01T02:39:15.377Z,4.67
2023-03-01T02:41:46.291Z,5.00
2023-03-01T02:44:15.693Z,4.70
2023-03-01T02:46:48.758Z,4.73
2023-03-01T02:49:26.029Z,4.87
2023-03-01T02:52:33.244Z,5.10
2023-03-01T02:55:04.215Z,5.27
2023-03-01T02:57:35.175Z,5.63
2023-03-01T03:00:08.926Z,4.67
2023-03-01T03:02:37.930Z,4.70
2023-03-01T03:05:09.335Z,5.00
2023-03-01T03:07:38.432Z,5.03
2023-03-01T03:10:08.674Z,4.50
2023-03-01T03:12:36.378Z,5.20
2023-03-01T03:15:09.775Z,4.87
2023-03-01T03:17:38.053Z,5.13
2023-03-01T03:20:07.167Z,5.20
2023-03-01T03:22:35.954Z,5.60
2023-03-01T03:25:03.705Z,5.60
2023-03-01T03:27:32.949Z,5.10
2023-03-01T03:30:00.709Z,4.70
2023-03-01T03:32:29.895Z,5.20
2023-03-01T03:34:57.733Z,5.13
2023-03-01T03:37:42.704Z,4.77
2023-03-01T03:40:17.167Z,5.30
2023-03-01T03:42:44.877Z,5.20
2023-03-01T03:45:12.666Z,5.47
2023-03-01T03:47:41.771Z,5.90
2023-03-01T03:50:11.035Z,5.30
2023-03-01T03:52:38.791Z,5.20
2023-03-01T03:55:11.905Z,4.70
2023-03-01T03:57:40.057Z,5.63
2023-03-01T04:00:13.655Z,4.87
2023-03-01T04:02:43.692Z,4.87
2023-03-01T04:05:13.612Z,4.60
2023-03-01T04:07:41.400Z,5.33
2023-03-01T04:10:16.599Z,4.93
2023-03-01T04:12:45.191Z,4.70
2023-03-01T04:15:17.070Z,5.27
2023-03-01T04:17:48.036Z,5.30
2023-03-01T04:20:19.113Z,4.97
2023-03-01T04:22:47.872Z,4.60
2023-03-01T04:25:16.387Z,4.60
2023-03-01T04:27:44.106Z,4.10
2023-03-01T04:30:12.875Z,4.93
2023-03-01T04:32:40.649Z,4.93
2023-03-01T04:35:10.447Z,4.53
2023-03-01T04:37:38.190Z,30.03
2023-03-01T04:40:16.587Z,25.50
2023-03-01T04:42:44.408Z,8.17
2023-03-01T04:45:14.160Z,5.97
2023-03-01T04:47:43.682Z,5.40
2023-03-01T04:50:15.148Z,5.10
2023-03-01T04:52:43.099Z,5.00
2023-03-01T04:55:12.088Z,5.47
2023-03-01T04:57:40.505Z,5.00
2023-03-01T05:00:21.860Z,4.47
2023-03-01T05:02:54.292Z,5.20
2023-03-01T05:05:26.793Z,5.40
2023-03-01T05:07:56.543Z,5.03
2023-03-01T05:10:26.200Z,5.80
2023-03-01T05:12:54.301Z,4.80
2023-03-01T05:15:26.501Z,5.10
2023-03-01T05:17:55.191Z,5.03
2023-03-01T05:20:25.027Z,6.03
2023-03-01T05:22:54.162Z,5.17
2023-03-01T05:25:22.426Z,5.67
2023-03-01T05:27:50.683Z,16.80
2023-03-01T05:30:19.279Z,5.77
2023-03-01T05:32:49.019Z,8.70
2023-03-01T05:35:20.146Z,5.30
2023-03-01T05:37:50.975Z,5.03
2023-03-01T05:40:20.533Z,5.27
2023-03-01T05:42:49.950Z,4.80
2023-03-01T05:45:19.154Z,5.27
2023-03-01T05:47:48.497Z,4.77
2023-03-01T05:50:20.569Z,9.53
2023-03-01T05:52:51.261Z,5.33
2023-03-01T05:55:20.527Z,5.00
2023-03-01T05:57:49.084Z,5.67
2023-03-01T06:00:19.806Z,5.40
2023-03-01T06:02:47.906Z,5.60
2023-03-01T06:05:16.629Z,5.60
2023-03-01T06:07:44.937Z,5.87
2023-03-01T06:10:15.290Z,6.10
2023-03-01T06:12:44.621Z,5.63
2023-03-01T06:15:14.963Z,5.63
2023-03-01T06:17:44.349Z,5.40
2023-03-01T06:20:15.385Z,5.97
2023-03-01T06:22:43.572Z,5.87
2023-03-01T06:25:13.358Z,6.70
2023-03-01T06:27:43.213Z,5.83
2023-03-01T06:30:13.040Z,5.70
2023-03-01T06:32:43.599Z,5.80
2023-03-01T06:35:12.226Z,5.60
2023-03-01T06:37:40.383Z,6.00
2023-03-01T06:40:10.086Z,5.73
2023-03-01T06:42:38.035Z,5.50
2023-03-01T06:45:08.592Z,5.43
2023-03-01T06:47:36.728Z,5.13
2023-03-01T06:50:05.260Z,4.73
2023-03-01T06:52:33.123Z,5.53
2023-03-01T06:55:01.298Z,5.67
2023-03-01T06:57:29.762Z,6.03
2023-03-01T06:59:57.509Z,5.70
2023-03-01T07:02:26.666Z,6.80
2023-03-01T07:04:54.541Z,5.50
2023-03-01T07:07:22.287Z,6.53
2023-03-01T07:09:51.244Z,7.00
2023-03-01T07:12:19.041Z,6.70
2023-03-01T07:14:46.879Z,6.33
2023-03-01T07:17:14.623Z,6.73
2023-03-01T07:19:43.722Z,5.87
2023-03-01T07:22:11.444Z,6.33
2023-03-01T07:24:39.162Z,6.70
2023-03-01T07:27:06.878Z,6.47
2023-03-01T07:29:34.643Z,7.40
2023-03-01T07:32:02.552Z,8.03
2023-03-01T07:34:30.589Z,7.83
2023-03-01T07:36:59.737Z,6.40
2023-03-01T07:39:27.533Z,8.23
2023-03-01T07:41:55.237Z,8.03
2023-03-01T07:44:23.135Z,7.60
2023-03-01T07:46:51.009Z,7.77
2023-03-01T07:49:18.720Z,8.27
2023-03-01T07:51:46.462Z,9.13
2023-03-01T07:54:15.536Z,9.37
2023-03-01T07:56:43.288Z,10.40
2023-03-01T07:59:11.104Z,10.27
2023-03-01T08:01:38.852Z,12.57
2023-03-01T08:04:08.087Z,12.10
2023-03-01T08:06:36.528Z,12.30
2023-03-01T08:09:04.483Z,11.93
2023-03-01T08:11:33.653Z,14.97
2023-03-01T08:14:01.414Z,15.07
2023-03-01T08:16:29.721Z,15.80
2023-03-01T08:19:01.604Z,16.37
2023-03-01T08:21:29.313Z,16.70
2023-03-01T08:23:57.078Z,15.97
2023-03-01T08:26:24.798Z,17.00
2023-03-01T08:28:53.989Z,15.37
2023-03-01T08:31:24.533Z,17.37
2023-03-01T08:33:56.285Z,13.97
2023-03-01T08:36:24.779Z,14.77
2023-03-01T08:38:52.877Z,17.47
2023-03-01T08:41:20.848Z,15.67
2023-03-01T08:43:48.668Z,12.30
2023-03-01T08:46:17.862Z,15.03
2023-03-01T08:48:45.693Z,14.20
2023-03-01T08:51:16.122Z,14.33
2023-03-01T08:53:44.730Z,13.63
2023-03-01T08:56:13.305Z,15.80
2023-03-01T08:58:41.695Z,14.50
2023-03-01T09:01:10.748Z,16.27
2023-03-01T09:03:40.129Z,15.80
2023-03-01T09:06:09.408Z,19.30
2023-03-01T09:08:37.565Z,19.03
2023-03-01T09:11:05.648Z,16.50
2023-03-01T09:13:33.962Z,16.50
2023-03-01T09:16:03.603Z,17.17
2023-03-01T09:18:31.774Z,18.60
2023-03-01T09:21:08.308Z,18.43
2023-03-01T09:23:37.306Z,16.80
2023-03-01T09:26:05.400Z,18.80
2023-03-01T09:28:33.352Z,18.50
2023-03-01T09:31:02.141Z,20.80
2023-03-01T09:33:31.018Z,17.50
2023-03-01T09:35:59.577Z,18.63
2023-03-01T09:38:29.771Z,17.63
2023-03-01T09:40:58.103Z,18.47
2023-03-01T09:43:32.924Z,18.50
2023-03-01T09:46:05.350Z,21.13
2023-03-01T09:48:47.896Z,19.27
2023-03-01T09:51:21.582Z,18.90
2023-03-01T09:53:50.825Z,20.87
2023-03-01T09:56:23.962Z,20.00
2023-03-01T09:58:58.438Z,20.73
2023-03-01T10:01:33.760Z,19.97
2023-03-01T10:04:13.491Z,20.53
2023-03-01T10:06:46.628Z,20.30
2023-03-01T10:09:18.664Z,21.83
2023-03-01T10:11:50.734Z,20.37
2023-03-01T10:14:33.633Z,21.53
2023-03-01T10:17:05.812Z,20.53
2023-03-01T10:19:38.551Z,20.27
2023-03-01T10:22:14.187Z,20.43
2023-03-01T10:24:43.415Z,20.10
2023-03-01T10:27:19.387Z,20.00
2023-03-01T10:29:57.195Z,21.00
2023-03-01T10:32:25.379Z,20.47
2023-03-01T10:34:53.142Z,19.83
2023-03-01T10:37:25.681Z,21.50
2023-03-01T10:39:59.799Z,18.93
2023-03-01T10:42:31.097Z,19.90
2023-03-01T10:44:59.382Z,20.87
2023-03-01T10:47:28.856Z,19.77
2023-03-01T10:50:02.960Z,19.93
2023-03-01T10:52:34.143Z,20.03
2023-03-01T10:55:06.158Z,19.47
2023-03-01T10:57:42.390Z,18.60
2023-03-01T11:00:20.593Z,17.47
2023-03-01T11:02:50.920Z,18.80
2023-03-01T11:05:24.861Z,18.00
2023-03-01T11:07:54.129Z,18.13
2023-03-01T11:10:26.910Z,19.17
2023-03-01T11:12:56.158Z,19.83
2023-03-01T11:15:28.225Z,19.27
2023-03-01T11:18:08.960Z,19.77
2023-03-01T11:20:41.512Z,18.90
2023-03-01T11:23:14.234Z,19.50
2023-03-01T11:25:50.045Z,20.30
2023-03-01T11:28:21.120Z,18.47
2023-03-01T11:31:07.755Z,19.27
2023-03-01T11:33:43.419Z,18.80
2023-03-01T11:36:18.702Z,17.90
2023-03-01T11:38:46.740Z,18.20
2023-03-01T11:41:19.523Z,18.87
2023-03-01T11:43:54.807Z,16.47
2023-03-01T11:46:47.945Z,17.27
2023-03-01T11:49:33.681Z,16.17
2023-03-01T11:52:09.617Z,16.97
2023-03-01T11:54:49.938Z,18.23
2023-03-01T11:57:41.075Z,18.57
2023-03-01T12:00:30.163Z,18.63
2023-03-01T12:03:25.577Z,18.73
2023-03-01T12:06:05.473Z,17.97
2023-03-01T12:08:37.995Z,17.03
2023-03-01T12:11:22.336Z,19.47
2023-03-01T12:14:05.343Z,18.00
2023-03-01T12:16:50.226Z,18.43
2023-03-01T12:19:36.667Z,18.40
2023-03-01T12:22:19.075Z,18.43
2023-03-01T12:25:03.219Z,17.37
2023-03-01T12:27:47.877Z,17.53
2023-03-01T12:30:37.131Z,17.10
2023-03-01T12:33:19.769Z,17.70
2023-03-01T12:36:09.287Z,18.90
2023-03-01T12:38:44.546Z,15.67
2023-03-01T12:41:30.613Z,17.73
2023-03-01T12:44:08.863Z,18.40
2023-03-01T12:46:53.700Z,18.50
2023-03-01T12:49:25.830Z,16.50
2023-03-01T12:51:58.778Z,16.63
2023-03-01T12:54:30.442Z,17.80
2023-03-01T12:57:02.040Z,16.10
2023-03-01T12:59:37.526Z,14.17
2023-03-01T13:02:17.765Z,15.63
2023-03-01T13:05:09.220Z,17.87
2023-03-01T13:07:43.418Z,15.70
2023-03-01T13:10:24.627Z,16.70
2023-03-01T13:13:05.399Z,18.40
2023-03-01T13:15:35.746Z,16.23
2023-03-01T13:18:26.575Z,17.57
2023-03-01T13:20:56.282Z,17.70
2023-03-01T13:23:28.718Z,17.63
2023-03-01T13:26:05.147Z,16.87
2023-03-01T13:28:42.979Z,17.17
2023-03-01T13:31:12.331Z,17.10
2023-03-01T13:33:49.443Z,16.57
2023-03-01T13:36:50.730Z,16.83
2023-03-01T13:39:34.440Z,17.23
2023-03-01T13:42:02.535Z,17.23
2023-03-01T13:44:35.484Z,16.87
2023-03-01T13:47:15.776Z,19.57
2023-03-01T13:49:48.661Z,15.83
2023-03-01T13:52:36.309Z,16.90
2023-03-01T13:55:06.851Z,17.20
2023-03-01T13:57:40.066Z,15.37
2023-03-01T14:00:09.490Z,14.73
2023-03-01T14:02:38.082Z,15.77
2023-03-01T14:05:12.709Z,15.60
2023-03-01T14:07:42.350Z,15.80
2023-03-01T14:10:14.857Z,17.50
2023-03-01T14:12:50.472Z,16.83
2023-03-01T14:15:22.116Z,17.77
2023-03-01T14:17:57.469Z,16.70
2023-03-01T14:20:29.003Z,16.93
2023-03-01T14:22:59.288Z,16.93
2023-03-01T14:25:30.945Z,16.60
2023-03-01T14:28:06.346Z,16.00
2023-03-01T14:30:38.448Z,14.97
2023-03-01T14:33:08.621Z,16.37
2023-03-01T14:35:38.654Z,15.23
2023-03-01T14:38:06.425Z,14.50
2023-03-01T14:40:37.002Z,15.47
2023-03-01T14:43:12.019Z,14.67
2023-03-01T14:45:39.806Z,14.60
2023-03-01T14:48:09.445Z,13.00
2023-03-01T14:50:44.251Z,13.47
2023-03-01T14:53:20.210Z,12.53
2023-03-01T14:55:50.617Z,12.37
2023-03-01T14:58:22.277Z,13.53
2023-03-01T15:00:53.690Z,14.50
2023-03-01T15:03:27.850Z,13.43
2023-03-01T15:05:57.257Z,12.50
2023-03-01T15:08:27.121Z,12.63
2023-03-01T15:11:00.666Z,13.63
2023-03-01T15:13:32.682Z,12.27
2023-03-01T15:16:12.940Z,12.43
2023-03-01T15:18:47.124Z,12.00
2023-03-01T15:21:23.852Z,12.93
2023-03-01T15:23:54.661Z,12.73
2023-03-01T15:26:32.461Z,14.10
2023-03-01T15:29:02.173Z,16.77
2023-03-01T15:31:31.984Z,14.13
2023-03-01T15:34:21.450Z,14.33
2023-03-01T15:36:51.362Z,14.33
2023-03-01T15:39:34.046Z,13.60
2023-03-01T15:42:02.109Z,12.90
2023-03-01T15:44:42.514Z,12.83
2023-03-01T15:47:25.744Z,13.17
2023-03-01T15:49:56.046Z,12.30
2023-03-01T15:52:30.199Z,11.47
2023-03-01T15:55:01.390Z,11.83
2023-03-01T15:57:29.614Z,12.17
2023-03-01T15:59:57.505Z,12.40
2023-03-01T16:02:26.683Z,11.67
2023-03-01T16:04:57.250Z,12.00
2023-03-01T16:07:28.908Z,12.10
2023-03-01T16:09:56.636Z,11.60
2023-03-01T16:12:25.208Z,11.83
2023-03-01T16:14:54.889Z,12.93
2023-03-01T16:17:22.691Z,12.10
2023-03-01T16:19:50.408Z,14.83
2023-03-01T16:22:18.161Z,11.07
2023-03-01T16:24:47.292Z,10.70
2023-03-01T16:27:16.523Z,13.03
2023-03-01T16:29:44.973Z,11.70
2023-03-01T16:32:12.898Z,10.70
2023-03-01T16:34:40.792Z,10.37
2023-03-01T16:37:08.544Z,8.50
2023-03-01T16:39:36.342Z,11.57
2023-03-01T16:42:10.880Z,9.17
2023-03-01T16:44:38.869Z,10.63
2023-03-01T16:47:06.774Z,10.87
2023-03-01T16:49:34.583Z,10.57
2023-03-01T16:52:02.350Z,10.67
2023-03-01T16:54:30.100Z,10.40
2023-03-01T16:56:58.475Z,10.80
2023-03-01T16:59:27.696Z,9.57
2023-03-01T17:01:55.474Z,9.43
2023-03-01T17:04:23.368Z,10.77
2023-03-01T17:06:51.948Z,9.37
2023-03-01T17:09:22.961Z,10.53
2023-03-01T17:11:50.974Z,9.23
2023-03-01T17:14:19.079Z,9.57
2023-03-01T17:16:48.355Z,9.83
2023-03-01T17:19:18.649Z,10.07
2023-03-01T17:21:46.945Z,9.17
2023-03-01T17:24:15.085Z,8.73
2023-03-01T17:26:42.885Z,11.70
2023-03-01T17:29:10.753Z,9.10
2023-03-01T17:31:38.505Z,9.40
2023-03-01T17:34:08.323Z,8.73
2023-03-01T17:36:44.694Z,10.03
2023-03-01T17:39:12.730Z,9.90
2023-03-01T17:41:40.570Z,10.27
2023-03-01T17:44:08.342Z,9.50
2023-03-01T17:46:36.379Z,10.77
2023-03-01T17:49:04.730Z,11.20
2023-03-01T17:51:34.046Z,10.20
2023-03-01T17:54:01.909Z,11.03
2023-03-01T17:56:29.777Z,8.60
2023-03-01T17:58:57.489Z,13.90
2023-03-01T18:01:25.717Z,11.20
2023-03-01T18:03:54.104Z,9.17
2023-03-01T18:06:23.701Z,10.43
2023-03-01T18:08:55.006Z,11.27
2023-03-01T18:11:24.003Z,10.97
2023-03-01T18:13:52.122Z,10.47
2023-03-01T18:16:21.471Z,10.83
2023-03-01T18:18:53.402Z,10.80
2023-03-01T18:21:21.502Z,10.67
2023-03-01T18:23:49.292Z,10.30
2023-03-01T18:26:22.194Z,11.37
2023-03-01T18:28:50.970Z,11.00
2023-03-01T18:31:22.184Z,10.67
2023-03-01T18:33:50.961Z,10.03
2023-03-01T18:36:21.157Z,11.37
2023-03-01T18:38:49.330Z,12.20
2023-03-01T18:41:18.439Z,12.47
2023-03-01T18:43:46.395Z,11.67
2023-03-01T18:46:14.261Z,12.07
2023-03-01T18:48:42.252Z,11.60
2023-03-01T18:51:12.440Z,13.57
2023-03-01T18:53:40.213Z,12.73
2023-03-01T18:56:08.611Z,12.83
2023-03-01T18:58:38.507Z,12.57
2023-03-01T19:01:08.414Z,13.23
2023-03-01T19:03:37.618Z,14.03
2023-03-01T19:06:05.849Z,14.17
2023-03-01T19:08:34.203Z,13.80
2023-03-01T19:11:04.000Z,16.73
2023-03-01T19:13:33.000Z,49.50
2023-03-01T19:16:07.648Z,14.90
2023-03-01T19:18:36.542Z,15.87
2023-03-01T19:21:05.846Z,15.60
2023-03-01T19:23:35.119Z,17.37
2023-03-01T19:26:04.468Z,15.90
2023-03-01T19:28:38.386Z,15.87
2023-03-01T19:31:10.203Z,15.13
2023-03-01T19:33:39.982Z,17.00
2023-03-01T19:36:09.299Z,17.03
2023-03-01T19:38:37.760Z,17.47
2023-03-01T19:41:06.616Z,18.23
2023-03-01T19:43:34.414Z,21.20
2023-03-01T19:46:02.541Z,16.97
2023-03-01T19:48:31.642Z,17.43
2023-03-01T19:50:59.625Z,15.93
2023-03-01T19:53:27.534Z,16.17
2023-03-01T19:55:59.365Z,15.93
2023-03-01T19:58:28.362Z,17.30
2023-03-01T20:00:58.706Z,18.00
2023-03-01T20:03:27.087Z,17.10
2023-03-01T20:05:56.581Z,19.53
2023-03-01T20:08:24.937Z,22.10
2023-03-01T20:10:52.928Z,32.37
2023-03-01T20:13:21.561Z,18.73
2023-03-01T20:15:49.667Z,18.40
2023-03-01T20:18:17.429Z,18.03
2023-03-01T20:20:50.105Z,16.77
2023-03-01T20:23:22.070Z,17.60
2023-03-01T20:25:49.963Z,17.00
2023-03-01T20:28:19.062Z,17.70
2023-03-01T20:30:46.946Z,16.63
2023-03-01T20:33:14.674Z,17.00
2023-03-01T20:35:43.048Z,17.30
2023-03-01T20:38:10.997Z,17.27
2023-03-01T20:40:40.088Z,17.30
2023-03-01T20:43:07.813Z,16.73
2023-03-01T20:45:35.538Z,17.57
2023-03-01T20:48:03.287Z,15.90
2023-03-01T20:50:31.110Z,15.93
2023-03-01T20:52:58.860Z,18.10
2023-03-01T20:55:26.661Z,14.17
2023-03-01T20:57:55.748Z,16.33
2023-03-01T21:00:23.572Z,16.77
2023-03-01T21:02:51.307Z,15.77
2023-03-01T21:05:19.862Z,17.07
2023-03-01T21:07:47.637Z,16.27
2023-03-01T21:10:15.542Z,16.63
2023-03-01T21:12:43.313Z,17.13
2023-03-01T21:15:23.470Z,17.10
2023-03-01T21:17:55.967Z,17.77
2023-03-01T21:20:23.688Z,17.63
2023-03-01T21:22:51.389Z,17.10
2023-03-01T21:25:19.217Z,17.70
2023-03-01T21:27:46.968Z,16.93
2023-03-01T21:30:17.059Z,16.27
2023-03-01T21:32:44.791Z,15.07
2023-03-01T21:35:13.310Z,16.17
2023-03-01T21:37:41.118Z,16.77
2023-03-01T21:40:10.610Z,16.40
2023-03-01T21:42:39.199Z,14.07
2023-03-01T21:45:07.957Z,15.80
2023-03-01T21:47:37.214Z,18.10
2023-03-01T21:50:05.417Z,17.07
2023-03-01T21:52:33.160Z,18.43
2023-03-01T21:55:03.008Z,15.93
2023-03-01T21:57:30.804Z,18.70
2023-03-01T21:59:58.517Z,18.57
2023-03-01T22:02:26.286Z,19.23
2023-03-01T22:04:57.527Z,19.87
2023-03-01T22:07:25.273Z,17.97
2023-03-01T22:09:53.008Z,17.73
2023-03-01T22:12:20.725Z,19.80
2023-03-01T22:14:48.451Z,19.00
2023-03-01T22:17:16.172Z,18.97
2023-03-01T22:19:43.881Z,19.27
2023-03-01T22:22:13.064Z,19.90
2023-03-01T22:24:40.828Z,19.77
2023-03-01T22:27:08.570Z,21.07
2023-03-01T22:29:36.696Z,20.23
2023-03-01T22:32:04.852Z,20.67
2023-03-01T22:34:32.646Z,19.87
2023-03-01T22:37:00.391Z,23.27
2023-03-01T22:39:29.477Z,19.10
2023-03-01T22:41:57.200Z,19.30
2023-03-01T22:44:25.363Z,21.03
2023-03-01T22:46:53.648Z,20.47
2023-03-01T22:49:22.136Z,20.30
2023-03-01T22:51:50.535Z,20.60
2023-03-01T22:54:20.420Z,18.63
2023-03-01T22:56:50.036Z,22.33
2023-03-01T22:59:20.003Z,18.20
2023-03-01T23:01:48.462Z,18.43
2023-03-01T23:04:16.581Z,19.87
2023-03-01T23:06:51.754Z,19.63
2023-03-01T23:09:22.111Z,17.30
2023-03-01T23:11:51.636Z,17.07
2023-03-01T23:14:19.780Z,15.93
2023-03-01T23:16:47.982Z,14.73
2023-03-01T23:19:16.523Z,13.57
2023-03-01T23:21:47.455Z,15.37
2023-03-01T23:24:15.701Z,14.20
2023-03-01T23:26:44.203Z,15.70
2023-03-01T23:29:13.805Z,18.60
2023-03-01T23:31:41.553Z,13.93
2023-03-01T23:34:09.473Z,13.80
2023-03-01T23:36:39.138Z,13.73
2023-03-01T23:39:07.872Z,14.53
2023-03-01T23:41:36.197Z,15.13
2023-03-01T23:44:06.025Z,12.70
2023-03-01T23:46:36.887Z,13.90
2023-03-01T23:49:05.166Z,17.20
2023-03-01T23:51:32.922Z,13.40
2023-03-01T23:54:05.205Z,14.47
2023-03-01T23:56:34.865Z,13.17
2023-03-01T23:59:05.829Z,14.90
